Time;durP1;ratioP1;P1;durP2;ratioP2;P2;SDS_P1;SDS_P2;PMS_P1;PMS_P2;Temp;Humidity;BMP_temperature;BMP_pressure;BME280_temperature;BME280_humidity;BME280_pressure;Samples;Min_cycle;Max_cycle;Signal;HPM_P1;HPM_P2
2024/02/26 16:55:19;;;;;;;;;;;;;;;;;;5046917;23;19937;-85
2024/02/26 16:57:45;;;;;;;;;;;;;;;;;;5007613;28;19921;-86
2024/02/26 17:00:12;;;;;;;;;;;;;;;;;;4993272;28;19924;-87
2024/02/26 17:02:38;;;;;;;;;;;;;;;;;;5016043;28;19922;-86
2024/02/26 17:05:03;;;;;;;;;;;;;;;;;;5008982;28;19918;-85
2024/02/26 17:07:29;;;;;;;;;;;;;;;;;;5004857;28;19957;-87
2024/02/26 17:09:54;;;;;;;;;;;;;;;;;;5018678;28;19925;-87
2024/02/26 17:12:22;;;;;;;;;;;;;;;;;;5011695;28;19921;-86
2024/02/26 17:14:50;;;;;;;;;;;;;;;;;;5015310;28;19963;-88
2024/02/26 17:17:15;;;;;;;;;;;;;;;;;;5017822;28;19917;-90
2024/02/26 17:19:41;;;;;;;;;;;;;;;;;;4983293;28;19925;-86
2024/02/26 17:22:09;;;;;;;;;;;;;;;;;;5013609;28;19957;-85
2024/02/26 17:24:36;;;;;;;;;;;;;;;;;;5014238;28;19917;-86
2024/02/26 17:27:01;;;;;;;;;;;;;;;;;;4986174;28;19925;-85
2024/02/26 17:29:27;;;;;;;;;;;;;;;;;;5008591;28;20288;-85
2024/02/26 17:31:53;;;;;;;;;;;;;;;;;;5006658;28;19972;-84
2024/02/26 17:34:19;;;;;;;;;;;;;;;;;;4992991;28;19922;-85
2024/02/26 17:36:44;;;;;;;;;;;;;;;;;;4985971;28;19976;-88
2024/02/26 17:39:10;;;;;;;;;;;;;;;;;;5014946;28;19925;-88
2024/02/26 17:41:36;;;;;;;;;;;;;;;;;;5017449;28;20359;-88
2024/02/26 17:44:01;;;;;;;;;;;;;;;;;;5000191;28;20005;-85
2024/02/26 17:46:27;;;;;;;;;;;;;;;;;;4985156;28;19917;-86
2024/02/26 17:48:53;;;;;;;;;;;;;;;;;;5011064;28;19917;-86
2024/02/26 17:51:19;;;;;;;;;;;;;;;;;;5012291;28;20272;-86
2024/02/26 17:53:44;;;;;;;;;;;;;;;;;;4997163;28;19972;-88
2024/02/26 17:56:10;;;;;;;;;;;;;;;;;;4983425;28;20403;-86
2024/02/26 17:58:40;;;;;;;;;;;;;;;;;;4992070;28;19918;-86
2024/02/26 18:01:06;;;;;;;;;;;;;;;;;;5013226;28;19955;-87
2024/02/26 18:03:31;;;;;;;;;;;;;;;;;;5012970;28;19917;-88
2024/02/26 18:05:59;;;;;;;;;;;;;;;;;;5018193;28;19925;-87
2024/02/26 18:08:24;;;;;;;;;;;;;;;;;;5000990;28;19913;-92
2024/02/26 18:10:50;;;;;;;;;;;;;;;;;;5000686;28;19924;-89
2024/02/26 18:13:16;;;;;;;;;;;;;;;;;;5000484;28;19913;-89
2024/02/26 18:15:42;;;;;;;;;;;;;;;;;;5001252;28;19918;-89
2024/02/26 18:18:07;;;;;;;;;;;;;;;;;;5018436;28;20004;-91
2024/02/26 18:20:33;;;;;;;;;;;;;;;;;;5004601;28;19956;-91
2024/02/26 18:22:58;;;;;;;;;;;;;;;;;;5003394;28;20391;-94
2024/02/26 18:25:24;;;;;;;;;;;;;;;;;;5005063;28;19975;-90
2024/02/26 18:27:51;;;;;;;;;;;;;;;;;;5023458;28;19945;-89
2024/02/26 18:30:16;;;;;;;;;;;;;;;;;;5016176;28;19941;-94
2024/02/26 18:32:42;;;;;;;;;;;;;;;;;;5010024;28;19921;-93
2024/02/26 18:35:09;;;;;;;;;;;;;;;;;;5016995;28;19921;-94
2024/02/26 18:37:35;;;;;;;;;;;;;;;;;;5002010;28;19917;-90
2024/02/26 18:40:00;;;;;;;;;;;;;;;;;;4997837;28;19924;-90
2024/02/26 18:42:26;;;;;;;;;;;;;;;;;;4996403;28;19918;-92
2024/02/26 18:44:53;;;;;;;;;;;;;;;;;;5000443;28;19922;-91
2024/02/26 18:47:21;;;;;;;;;;;;;;;;;;4997515;28;19922;-92
2024/02/26 18:49:46;;;;;;;;;;;;;;;;;;5014243;28;19917;-91
2024/02/26 18:52:12;;;;;;;;;;;;;;;;;;5002950;28;19925;-93
2024/02/26 18:54:38;;;;;;;;;;;;;;;;;;5000803;28;20382;-92
2024/02/26 18:57:05;;;;;;;;;;;;;;;;;;5019059;28;20287;-91
2024/02/26 18:59:31;;;;;;;;;;;;;;;;;;5022350;28;19928;-93
2024/02/26 19:01:56;;;;;;;;;;;;;;;;;;5003874;28;19917;-92
2024/02/26 19:04:21;;;;;;;;;;;;;;;;;;5000796;28;19902;-93
2024/02/26 19:06:49;;;;;;;;;;;;;;;;;;5004602;28;20380;-94
2024/02/26 19:09:15;;;;;;;;;;;;;;;;;;4990252;28;19953;-92
2024/02/26 19:11:51;;;;;;;;;;;;;;;;;;5014994;28;19917;-91
2024/02/26 19:14:17;;;;;;;;;;;;;;;;;;4998399;28;20025;-92
2024/02/26 19:16:43;;;;;;;;;;;;;;;;;;4998289;28;19925;-91
2024/02/26 19:19:09;;;;;;;;;;;;;;;;;;4992751;28;19918;-92
2024/02/26 19:21:35;;;;;;;;;;;;;;;;;;5013611;28;19921;-91
2024/02/26 19:24:01;;;;;;;;;;;;;;;;;;5001516;28;20008;-89
2024/02/26 19:26:27;;;;;;;;;;;;;;;;;;4998973;28;19956;-87
2024/02/26 19:28:52;;;;;;;;;;;;;;;;;;5010528;28;20392;-89
2024/02/26 19:31:17;;;;;;;;;;;;;;;;;;4982711;28;20001;-88
2024/02/26 19:33:43;;;;;;;;;;;;;;;;;;5011119;28;19914;-90
2024/02/26 19:36:08;;;;;;;;;;;;;;;;;;5017585;28;19926;-91
2024/02/26 19:38:33;;;;;;;;;;;;;;;;;;5008288;28;19984;-89
2024/02/26 19:40:59;;;;;;;;;;;;;;;;;;5000100;28;20399;-86
2024/02/26 19:43:24;;;;;;;;;;;;;;;;;;4996627;28;19925;-89
2024/02/26 19:45:50;;;;;;;;;;;;;;;;;;4997424;28;19918;-89
2024/02/26 19:48:15;;;;;;;;;;;;;;;;;;5004786;28;19943;-89
2024/02/26 19:50:44;;;;;;;;;;;;;;;;;;4988881;28;19987;-89
2024/02/26 19:53:10;;;;;;;;;;;;;;;;;;4994109;28;19929;-90
2024/02/26 19:55:35;;;;;;;;;;;;;;;;;;4989532;28;19926;-87
2024/02/26 19:58:03;;;;;;;;;;;;;;;;;;4984144;28;20388;-88
2024/02/26 20:00:28;;;;;;;;;;;;;;;;;;4999370;28;19929;-86
2024/02/26 20:02:55;;;;;;;;;;;;;;;;;;4997258;28;19918;-91
2024/02/26 20:05:21;;;;;;;;;;;;;;;;;;5002217;28;19941;-88
2024/02/26 20:07:47;;;;;;;;;;;;;;;;;;4985547;28;19918;-90
2024/02/26 20:10:12;;;;;;;;;;;;;;;;;;5014774;28;19918;-90
2024/02/26 20:12:38;;;;;;;;;;;;;;;;;;5005914;28;19928;-88
2024/02/26 20:15:04;;;;;;;;;;;;;;;;;;4994013;28;19925;-86
2024/02/26 20:17:29;;;;;;;;;;;;;;;;;;5007329;28;19940;-87
2024/02/26 20:19:57;;;;;;;;;;;;;;;;;;5017820;28;20372;-88
2024/02/26 20:22:23;;;;;;;;;;;;;;;;;;4999513;28;19963;-87
2024/02/26 20:24:48;;;;;;;;;;;;;;;;;;4999035;28;19945;-89
2024/02/26 20:27:14;;;;;;;;;;;;;;;;;;5018573;28;19918;-93
2024/02/26 20:29:40;;;;;;;;;;;;;;;;;;4999786;28;20012;-87
2024/02/26 20:32:06;;;;;;;;;;;;;;;;;;4998933;28;20012;-90
2024/02/26 20:34:31;;;;;;;;;;;;;;;;;;5010772;28;19917;-89
2024/02/26 20:36:56;;;;;;;;;;;;;;;;;;5018385;28;19918;-89
2024/02/26 20:39:22;;;;;;;;;;;;;;;;;;5021972;28;19917;-89
2024/02/26 20:41:48;;;;;;;;;;;;;;;;;;5025879;28;19917;-89
2024/02/26 20:44:13;;;;;;;;;;;;;;;;;;5006534;28;19942;-88
2024/02/26 20:46:42;;;;;;;;;;;;;;;;;;5016092;28;19918;-87
2024/02/26 20:49:08;;;;;;;;;;;;;;;;;;5012017;28;20383;-86
2024/02/26 20:51:34;;;;;;;;;;;;;;;;;;5008346;28;19924;-87
2024/02/26 20:53:59;;;;;;;;;;;;;;;;;;5011782;28;19928;-90
2024/02/26 20:56:25;;;;;;;;;;;;;;;;;;5020615;28;19917;-88
2024/02/26 20:58:50;;;;;;;;;;;;;;;;;;5021348;28;19964;-90
2024/02/26 21:01:16;;;;;;;;;;;;;;;;;;5012721;28;19917;-87
2024/02/26 21:03:41;;;;;;;;;;;;;;;;;;4992878;28;20295;-90
2024/02/26 21:06:07;;;;;;;;;;;;;;;;;;5000018;28;19917;-87
2024/02/26 21:08:33;;;;;;;;;;;;;;;;;;4999021;28;20331;-91
2024/02/26 21:10:58;;;;;;;;;;;;;;;;;;5016912;28;20070;-89
2024/02/26 21:13:24;;;;;;;;;;;;;;;;;;4995729;28;19925;-88
2024/02/26 21:15:49;;;;;;;;;;;;;;;;;;5006619;28;20438;-90
2024/02/26 21:18:14;;;;;;;;;;;;;;;;;;5006408;28;19918;-86
2024/02/26 21:20:40;;;;;;;;;;;;;;;;;;5008192;28;19999;-86
2024/02/26 21:23:07;;;;;;;;;;;;;;;;;;5020862;28;19917;-90
2024/02/26 22:21:33;;;;;;;;;;;;;;;;;;4833480;29;19920;-86
